Terminal Aerodrome Forecast
Issued by NWS Charleston, WV

Current Version | Previous Version | Text Only | Print | Product List | Glossary Off
Versions: 1 2 3 4 5 6 7 8 9 10 11 12 13 14 15 16 17 18 19 20 21 22 23 24 25 26 27 28 29

503
FTUS41 KRLX 130312 AAA
TAFBKW
TAF AMD
KBKW 130312Z 1303/1324 31013G22KT 5SM -SHSN OVC020
      TEMPO 1303/1306 2SM -SN BLSN OVC015
     FM130700 30011G19KT P6SM BKN035
     FM131800 26009G16KT P6SM BKN060
     FM132100 22008G14KT P6SM BKN070
     FM132300 21008KT P6SM BKN110=

USA.gov is the U.S. government's official web portal to all federal, state and local government web resources and services.